createdAt,value
2019-04-29T12:23:55.293Z,100679.95
2019-04-29T12:25:08.072Z,100677.33
2019-04-29T12:26:21.746Z,100680.39
2019-04-29T12:27:34.335Z,100678.79
2019-04-29T12:28:20.889Z,100675.71
2019-04-29T12:29:35.928Z,100681.72
2019-04-29T12:30:49.136Z,100727.73
2019-04-29T12:32:01.997Z,100648.32
2019-04-29T12:33:14.941Z,100653.76
2019-04-29T12:34:28.962Z,100533.65
2019-04-29T12:35:51.406Z,100502.42
2019-04-29T12:37:00.536Z,100497.56
2019-04-29T12:38:13.351Z,100567.01
2019-04-29T12:39:42.648Z,100656.77
2019-04-29T12:40:49.767Z,100659.14
2019-04-29T12:42:05.746Z,100599.7
2019-04-29T12:43:19.813Z,100539.64
2019-04-29T12:44:39.869Z,100493.85
2019-04-29T12:45:54.464Z,100520.43
2019-04-29T12:47:07.322Z,100607.62
2019-04-29T12:48:24.621Z,100704.57
2019-04-29T12:49:38.303Z,100668.97
2019-04-29T12:50:40.076Z,100661.61
2019-04-29T12:51:53.871Z,100667.28
2019-04-29T12:53:06.834Z,100661.56
2019-04-29T12:54:20.355Z,100656.57
2019-04-29T12:55:44.014Z,100654.06
2019-04-29T12:56:59.216Z,100649.46
2019-04-29T12:58:12.334Z,100647.35
2019-04-29T12:59:30.476Z,100644.34
2019-04-29T13:00:47.974Z,100645.1
2019-04-29T13:02:02.910Z,100645.98
2019-04-29T13:03:15.792Z,100647.5
2019-04-29T13:04:29.953Z,100646.14
2019-04-29T13:05:43.006Z,100640.59
2019-04-29T13:06:59.134Z,100636.78
2019-04-29T13:08:11.977Z,100639.34
2019-04-29T13:09:24.892Z,100636.85
2019-04-29T13:10:42.311Z,100636.49
2019-04-29T13:12:17.148Z,100640.65
2019-04-29T13:13:15.586Z,100633.84
2019-04-29T13:14:34.796Z,100634.57
2019-04-29T13:15:50.182Z,100631.93
2019-04-29T13:17:14.219Z,100633.82
2019-04-29T13:18:24.785Z,100631.67
2019-04-29T13:19:37.725Z,100625.43
2019-04-29T13:20:53.633Z,100624.5
2019-04-29T13:22:15.386Z,100620.78
2019-04-29T13:23:34.617Z,100613.6
2019-04-29T13:24:46.709Z,100610.31
2019-04-29T13:26:03.690Z,100610.92
2019-04-29T13:27:20.875Z,100611.22
2019-04-29T13:28:58.320Z,100610.03
2019-04-29T13:29:55.453Z,100610.82
2019-04-29T13:31:08.339Z,100616.28
2019-04-29T13:32:25.302Z,100607.5
2019-04-29T13:33:38.073Z,100605.18
2019-04-29T13:34:51.085Z,100602.44
2019-04-29T13:36:03.982Z,100603.25
2019-04-29T13:37:19.995Z,100603.04
2019-04-29T13:38:32.658Z,100595.42
2019-04-29T13:39:45.746Z,100596.03
